Time;durP1;ratioP1;P1;durP2;ratioP2;P2;SDS_P1;SDS_P2;PMS_P1;PMS_P2;Temp;Humidity;BMP_temperature;BMP_pressure;BME280_temperature;BME280_humidity;BME280_pressure;Samples;Min_cycle;Max_cycle;Signal;HPM_P1;HPM_P2
2022/07/23 05:21:08;;;;;;;;;;;;;;;31.54;38.57;98345.94;5234904;24;19975;-69
2022/07/23 05:23:36;;;;;;;;;;;;;;;31.81;37.68;98348.53;4827708;29;19949;-70
2022/07/23 05:26:03;;;;;;;;;;;;;;;31.99;36.82;98349.97;4828750;29;20330;-70
2022/07/23 05:28:32;;;;;;;;;;;;;;;31.80;38.54;98341.19;4826482;29;19954;-70
2022/07/23 05:30:59;;;;;;;;;;;;;;;31.88;40.50;98343.50;4843428;29;19965;-70
2022/07/23 05:33:27;;;;;;;;;;;;;;;31.92;34.69;98343.97;4828405;29;19955;-69
2022/07/23 05:35:59;;;;;;;;;;;;;;;31.54;37.03;98335.16;4825509;29;19947;-68
2022/07/23 05:38:29;;;;;;;;;;;;;;;31.27;39.46;98339.06;4823622;29;19948;-68
2022/07/23 05:40:59;;;;;;;;;;;;;;;30.93;41.18;98335.63;4833205;29;19949;-68
2022/07/23 05:43:27;;;;;;;;;;;;;;;30.65;37.65;98340.75;4822708;29;19984;-68
2022/07/23 05:45:56;;;;;;;;;;;;;;;30.46;44.63;98331.94;4827113;29;19948;-68
2022/07/23 05:48:24;;;;;;;;;;;;;;;30.33;41.96;98339.56;4822278;29;19949;-68
2022/07/23 05:51:24;;;;;;;;;;;;;;;30.27;40.58;98335.94;4811431;29;19963;-68
2022/07/23 05:53:52;;;;;;;;;;;;;;;30.19;42.71;98346.47;4825854;29;19954;-68
2022/07/23 05:56:21;;;;;;;;;;;;;;;30.39;41.37;98346.94;4828275;29;20221;-68
2022/07/23 05:58:48;;;;;;;;;;;;;;;30.46;40.64;98343.50;4827594;29;19961;-68
2022/07/23 06:01:18;;;;;;;;;;;;;;;30.64;40.58;98341.31;4828280;29;19988;-68
2022/07/23 06:03:53;;;;;;;;;;;;;;;30.52;38.83;98343.44;4826678;29;19959;-68
2022/07/23 06:06:20;;;;;;;;;;;;;;;30.62;37.99;98346.84;4826447;29;19961;-68
2022/07/23 06:08:48;;;;;;;;;;;;;;;30.68;39.39;98341.78;4828070;29;20352;-68
2022/07/23 06:11:15;;;;;;;;;;;;;;;30.74;40.18;98346.22;4828079;29;19967;-68
2022/07/23 06:13:43;;;;;;;;;;;;;;;30.68;45.17;98359.13;4828398;29;19951;-68
2022/07/23 06:16:10;;;;;;;;;;;;;;;30.57;44.80;98354.19;4828777;29;19954;-69
2022/07/23 06:18:38;;;;;;;;;;;;;;;30.41;41.99;98357.94;4829294;29;20486;-68
2022/07/23 06:21:05;;;;;;;;;;;;;;;30.33;44.21;98351.91;4826744;29;20390;-68
2022/07/23 06:23:43;;;;;;;;;;;;;;;30.19;44.74;98353.03;4827696;29;20209;-68
2022/07/23 06:26:10;;;;;;;;;;;;;;;30.27;42.47;98354.03;4838241;29;19947;-68
2022/07/23 06:28:37;;;;;;;;;;;;;;;30.26;41.34;98363.22;4843624;29;19963;-68
2022/07/23 06:31:05;;;;;;;;;;;;;;;30.39;41.84;98367.13;4842014;29;19970;-68
2022/07/23 06:33:33;;;;;;;;;;;;;;;30.39;45.04;98367.13;4843892;29;19956;-68
2022/07/23 06:36:00;;;;;;;;;;;;;;;30.26;47.78;98375.53;4843674;29;19949;-68
2022/07/23 06:38:27;;;;;;;;;;;;;;;30.47;47.55;98371.03;4844010;29;19953;-68
2022/07/23 06:40:56;;;;;;;;;;;;;;;30.51;44.12;98373.63;4844566;29;19949;-69
2022/07/23 06:43:23;;;;;;;;;;;;;;;30.25;45.85;98373.97;4830677;29;19959;-69
2022/07/23 06:45:54;;;;;;;;;;;;;;;30.37;45.53;98375.53;4828748;29;20365;-68
2022/07/23 06:48:22;;;;;;;;;;;;;;;30.33;45.49;98382.84;4830033;29;19955;-68
2022/07/23 06:50:52;;;;;;;;;;;;;;;30.28;43.88;98386.53;4845912;29;20237;-68
2022/07/23 06:53:23;;;;;;;;;;;;;;;30.27;44.58;98385.78;4830389;29;19945;-68
2022/07/23 06:55:51;;;;;;;;;;;;;;;30.30;42.35;98393.34;4845911;29;19951;-68
2022/07/23 06:58:19;;;;;;;;;;;;;;;30.30;42.26;98389.69;4846692;29;19954;-68
2022/07/23 07:00:46;;;;;;;;;;;;;;;30.35;42.48;98391.78;4845926;29;19952;-68
2022/07/23 07:03:14;;;;;;;;;;;;;;;30.39;42.75;98396.00;4847004;29;20335;-68
2022/07/23 07:05:41;;;;;;;;;;;;;;;30.43;42.25;98405.16;4846194;29;19955;-68
2022/07/23 07:08:08;;;;;;;;;;;;;;;30.63;41.25;98404.03;4846313;29;20301;-68
2022/07/23 07:10:35;;;;;;;;;;;;;;;30.72;42.02;98403.69;4845015;29;20269;-68
2022/07/23 07:13:03;;;;;;;;;;;;;;;30.88;41.63;98407.84;4838064;29;19953;-68
2022/07/23 07:15:30;;;;;;;;;;;;;;;31.02;42.84;98416.19;4846337;29;20398;-68
2022/07/23 07:17:57;;;;;;;;;;;;;;;31.12;42.12;98408.75;4846016;29;20312;-69
2022/07/23 07:20:24;;;;;;;;;;;;;;;31.31;41.96;98408.88;4846277;29;20301;-68
2022/07/23 07:22:54;;;;;;;;;;;;;;;31.46;42.71;98414.31;4845874;29;20357;-68
2022/07/23 07:25:21;;;;;;;;;;;;;;;31.54;41.02;98418.22;4845549;29;19957;-69
2022/07/23 07:27:49;;;;;;;;;;;;;;;31.75;42.11;98420.13;4845697;29;19955;-70
2022/07/23 07:30:16;;;;;;;;;;;;;;;31.70;39.57;98417.28;4841086;29;19961;-69
2022/07/23 07:32:43;;;;;;;;;;;;;;;31.94;40.81;98414.41;4844719;29;19953;-69
2022/07/23 07:35:26;;;;;;;;;;;;;;;32.08;36.58;98424.06;4845010;29;20285;-69
2022/07/23 07:37:53;;;;;;;;;;;;;;;32.20;36.75;98423.41;4845500;29;19956;-69
2022/07/23 07:40:21;;;;;;;;;;;;;;;32.29;34.40;98425.13;4845796;29;19954;-69
2022/07/23 07:42:49;;;;;;;;;;;;;;;32.36;33.48;98419.53;4832172;29;19957;-69
2022/07/23 07:45:17;;;;;;;;;;;;;;;32.49;33.79;98427.53;4842800;29;19946;-69
2022/07/23 07:47:44;;;;;;;;;;;;;;;32.62;34.23;98424.78;4845970;29;20339;-69
2022/07/23 07:50:11;;;;;;;;;;;;;;;32.69;34.53;98418.38;4845762;29;19960;-69
2022/07/23 07:52:39;;;;;;;;;;;;;;;32.77;33.63;98419.31;4844543;29;19948;-69
2022/07/23 07:55:07;;;;;;;;;;;;;;;32.90;35.86;98410.72;4846237;29;19956;-69
2022/07/23 07:57:35;;;;;;;;;;;;;;;33.02;33.41;98409.25;4845717;29;19947;-69
2022/07/23 08:00:03;;;;;;;;;;;;;;;33.20;33.30;98413.47;4845664;29;19950;-69
2022/07/23 08:02:40;;;;;;;;;;;;;;;33.28;36.94;98422.31;4845789;29;19958;-69
2022/07/23 08:05:08;;;;;;;;;;;;;;;33.48;33.74;98419.59;4845331;29;19960;-69
2022/07/23 08:07:37;;;;;;;;;;;;;;;33.61;31.97;98424.72;4845733;29;19947;-69
2022/07/23 08:10:04;;;;;;;;;;;;;;;33.73;32.38;98426.09;4845692;29;19953;-69
2022/07/23 08:12:39;;;;;;;;;;;;;;;33.80;34.44;98419.63;4845952;29;19969;-69
2022/07/23 08:15:06;;;;;;;;;;;;;;;33.86;31.71;98429.03;4845213;29;19958;-70
2022/07/23 08:17:37;;;;;;;;;;;;;;;33.93;32.38;98425.47;4845326;29;19957;-69
2022/07/23 08:20:05;;;;;;;;;;;;;;;33.98;31.79;98429.59;4845628;29;20364;-69
2022/07/23 08:23:01;;;;;;;;;;;;;;;33.95;32.20;98430.72;4845050;29;20375;-69
2022/07/23 08:25:33;;;;;;;;;;;;;;;33.94;30.42;98432.84;4823665;29;20244;-69
2022/07/23 08:28:01;;;;;;;;;;;;;;;34.00;31.61;98429.84;4844389;29;20337;-69
2022/07/23 08:30:30;;;;;;;;;;;;;;;34.04;32.17;98425.28;4842067;29;20442;-69
2022/07/23 08:32:57;;;;;;;;;;;;;;;33.95;31.84;98446.00;4838687;29;19947;-69
2022/07/23 08:35:29;;;;;;;;;;;;;;;33.89;31.13;98442.44;4844117;29;19952;-69
2022/07/23 08:37:56;;;;;;;;;;;;;;;33.81;33.23;98432.81;4844268;29;19950;-69
2022/07/23 08:40:28;;;;;;;;;;;;;;;33.83;32.66;98433.03;4844663;29;20253;-69
2022/07/23 08:42:56;;;;;;;;;;;;;;;33.78;40.13;98436.03;4844932;29;19952;-69
2022/07/23 08:45:24;;;;;;;;;;;;;;;33.76;39.19;98430.78;4828796;29;20250;-69
2022/07/23 08:47:55;;;;;;;;;;;;;;;33.64;43.27;98426.50;4844209;29;20248;-69
2022/07/23 08:50:23;;;;;;;;;;;;;;;33.68;42.59;98418.25;4844152;29;19957;-69
2022/07/23 08:52:51;;;;;;;;;;;;;;;33.73;45.69;98411.59;4844868;29;20027;-69
2022/07/23 08:55:20;;;;;;;;;;;;;;;33.52;47.02;98407.69;4844252;29;19947;-69
2022/07/23 08:57:48;;;;;;;;;;;;;;;33.70;45.91;98419.28;4844928;29;19955;-69
2022/07/23 09:00:16;;;;;;;;;;;;;;;33.65;51.18;98419.34;4844378;29;19950;-69
2022/07/23 09:02:44;;;;;;;;;;;;;;;33.56;47.39;98423.47;4843861;29;19951;-69
2022/07/23 09:05:12;;;;;;;;;;;;;;;33.60;50.34;98423.91;4844550;29;19957;-69
2022/07/23 09:07:58;;;;;;;;;;;;;;;33.59;48.43;98421.59;4844206;29;19957;-69
2022/07/23 09:10:25;;;;;;;;;;;;;;;33.58;49.99;98414.19;4838810;29;19947;-69
2022/07/23 09:12:53;;;;;;;;;;;;;;;33.50;45.18;98427.78;4844474;29;19964;-69
2022/07/23 09:15:20;;;;;;;;;;;;;;;33.38;52.58;98420.59;4844530;29;19955;-69
2022/07/23 09:17:48;;;;;;;;;;;;;;;33.33;52.77;98415.66;4845027;29;19958;-69
2022/07/23 09:20:16;;;;;;;;;;;;;;;33.24;49.01;98418.94;4841282;29;19977;-69
2022/07/23 09:22:45;;;;;;;;;;;;;;;33.33;47.78;98416.41;4844834;29;19976;-69
2022/07/23 09:25:14;;;;;;;;;;;;;;;33.53;47.94;98412.16;4844075;29;19999;-69
2022/07/23 09:27:46;;;;;;;;;;;;;;;33.34;54.05;98418.00;4843254;29;19952;-69
2022/07/23 09:30:15;;;;;;;;;;;;;;;33.36;51.50;98417.44;4843654;29;19952;-69
2022/07/23 09:32:42;;;;;;;;;;;;;;;33.50;46.95;98414.03;4843465;29;19969;-69
2022/07/23 09:35:10;;;;;;;;;;;;;;;33.48;51.25;98402.22;4843918;29;20227;-69
2022/07/23 09:37:37;;;;;;;;;;;;;;;33.54;51.55;98405.06;4846967;29;19953;-69
2022/07/23 09:40:09;;;;;;;;;;;;;;;33.39;50.92;98404.75;4842184;29;20394;-69
2022/07/23 09:42:36;;;;;;;;;;;;;;;33.56;54.63;98406.06;4827404;29;19956;-69
2022/07/23 09:45:04;;;;;;;;;;;;;;;33.51;48.97;98401.13;4825901;29;19951;-69
2022/07/23 09:47:31;;;;;;;;;;;;;;;33.60;50.21;98403.63;4810357;29;19951;-69
2022/07/23 09:50:05;;;;;;;;;;;;;;;33.67;55.88;98399.31;4826658;29;19951;-69
2022/07/23 09:52:34;;;;;;;;;;;;;;;33.47;52.94;98399.88;4833959;29;19971;-69
2022/07/23 09:55:03;;;;;;;;;;;;;;;33.48;53.25;98395.63;4843951;29;19949;-69
2022/07/23 09:57:31;;;;;;;;;;;;;;;33.47;54.50;98388.28;4843714;29;19957;-69
2022/07/23 10:00:02;;;;;;;;;;;;;;;33.51;55.68;98397.41;4843781;29;19969;-70
2022/07/23 10:02:31;;;;;;;;;;;;;;;33.65;54.67;98396.16;4839025;29;19960;-70
2022/07/23 10:05:25;;;;;;;;;;;;;;;33.51;50.94;98391.63;4808341;29;19957;-70
2022/07/23 10:08:09;;;;;;;;;;;;;;;33.56;48.73;98396.59;4838528;29;19958;-70
2022/07/23 10:10:56;;;;;;;;;;;;;;;33.64;54.79;98392.50;4841301;29;19960;-70
2022/07/23 10:13:58;;;;;;;;;;;;;;;33.42;56.60;98384.13;4824153;29;19954;-70
2022/07/23 10:16:53;;;;;;;;;;;;;;;33.42;58.10;98387.03;4839609;29;19959;-70
2022/07/23 10:19:20;;;;;;;;;;;;;;;33.29;54.69;98381.19;4847169;29;20261;-70
2022/07/23 10:21:57;;;;;;;;;;;;;;;33.42;57.92;98378.34;4844466;29;19969;-70
2022/07/23 10:24:36;;;;;;;;;;;;;;;33.60;55.36;98373.84;4847033;29;19944;-70
2022/07/23 10:27:04;;;;;;;;;;;;;;;33.50;53.61;98364.75;4847038;29;19948;-70
2022/07/23 10:29:31;;;;;;;;;;;;;;;33.75;54.62;98377.00;4842916;29;19951;-70
2022/07/23 10:32:05;;;;;;;;;;;;;;;33.79;50.67;98368.75;4846999;29;19965;-70
2022/07/23 10:34:35;;;;;;;;;;;;;;;33.84;53.35;98370.78;4846993;29;20228;-71
2022/07/23 10:37:20;;;;;;;;;;;;;;;34.04;51.33;98367.25;4843716;29;19951;-70
2022/07/23 10:39:48;;;;;;;;;;;;;;;34.18;51.96;98363.03;4845975;29;20374;-70
2022/07/23 10:42:16;;;;;;;;;;;;;;;34.06;51.74;98364.59;4845810;29;19955;-70
2022/07/23 10:44:45;;;;;;;;;;;;;;;34.20;51.75;98363.25;4847206;29;19981;-70
2022/07/23 10:47:41;;;;;;;;;;;;;;;34.28;49.92;98367.06;4847111;29;19979;-70
2022/07/23 10:50:18;;;;;;;;;;;;;;;34.38;52.67;98363.69;4846955;29;19947;-70
2022/07/23 10:53:04;;;;;;;;;;;;;;;34.38;49.12;98366.59;4847054;29;19968;-70
2022/07/23 10:55:32;;;;;;;;;;;;;;;34.36;51.75;98362.13;4847497;29;19955;-70
2022/07/23 10:58:00;;;;;;;;;;;;;;;34.47;47.76;98358.22;4846686;29;19950;-70
2022/07/23 11:00:28;;;;;;;;;;;;;;;34.51;43.68;98357.84;4847018;29;19981;-70
2022/07/23 11:02:58;;;;;;;;;;;;;;;34.59;40.21;98356.66;4847058;29;19950;-70
2022/07/23 11:05:42;;;;;;;;;;;;;;;34.68;33.83;98355.41;4847495;29;19953;-70
2022/07/23 11:08:11;;;;;;;;;;;;;;;34.70;33.68;98336.06;4847009;29;19953;-70
2022/07/23 11:10:40;;;;;;;;;;;;;;;34.69;34.44;98343.25;4846353;29;19959;-70
2022/07/23 11:13:26;;;;;;;;;;;;;;;34.71;33.90;98348.47;4845690;29;19971;-70
2022/07/23 11:16:06;;;;;;;;;;;;;;;34.78;34.54;98328.25;4846409;29;19953;-70
2022/07/23 11:18:39;;;;;;;;;;;;;;;34.94;34.05;98335.00;4846738;29;19952;-70
2022/07/23 11:23:54;;;;;;;;;;;;;;;34.90;33.97;98325.84;4846410;29;19951;-70
2022/07/23 11:26:40;;;;;;;;;;;;;;;35.03;33.99;98322.94;4846566;29;19958;-70
2022/07/23 11:29:26;;;;;;;;;;;;;;;34.99;35.54;98326.16;4846250;29;19966;-70
2022/07/23 11:31:57;;;;;;;;;;;;;;;35.06;34.33;98324.72;4846470;29;19977;-70
2022/07/23 11:34:34;;;;;;;;;;;;;;;34.96;34.41;98324.38;4830432;29;19955;-70
2022/07/23 11:37:03;;;;;;;;;;;;;;;34.89;33.29;98318.50;4846224;29;19946;-70
2022/07/23 11:39:31;;;;;;;;;;;;;;;35.03;34.00;98298.88;4846457;29;20256;-70
2022/07/23 11:41:59;;;;;;;;;;;;;;;35.07;33.32;98302.25;4845912;29;19961;-70
2022/07/23 11:44:27;;;;;;;;;;;;;;;35.10;32.05;98307.69;4846097;29;19954;-70
2022/07/23 11:46:57;;;;;;;;;;;;;;;35.18;32.50;98307.78;4844875;29;19945;-70
2022/07/23 11:49:26;;;;;;;;;;;;;;;35.05;32.90;98310.72;4845314;29;20398;-70
2022/07/23 11:52:06;;;;;;;;;;;;;;;35.07;31.85;98303.00;4845749;29;19957;-70
2022/07/23 11:54:35;;;;;;;;;;;;;;;35.20;32.68;98293.44;4846230;29;19952;-70
2022/07/23 11:57:06;;;;;;;;;;;;;;;35.28;32.67;98300.13;4839744;29;19952;-71
2022/07/23 11:59:36;;;;;;;;;;;;;;;35.32;33.30;98292.59;4845660;29;19953;-71
2022/07/23 12:02:06;;;;;;;;;;;;;;;35.23;32.54;98290.19;4843403;29;19955;-70
2022/07/23 12:04:45;;;;;;;;;;;;;;;35.22;34.04;98291.53;4842684;29;19949;-70
2022/07/23 12:07:23;;;;;;;;;;;;;;;35.12;32.51;98289.72;4845301;29;20356;-71
2022/07/23 12:09:52;;;;;;;;;;;;;;;35.21;34.00;98287.09;4845389;29;19956;-70
2022/07/23 12:12:22;;;;;;;;;;;;;;;35.26;33.59;98276.66;4844912;29;19969;-70
2022/07/23 12:14:55;;;;;;;;;;;;;;;35.07;31.37;98271.03;4845643;29;19947;-70
2022/07/23 12:17:30;;;;;;;;;;;;;;;35.18;32.68;98278.69;4844574;29;19954;-70
2022/07/23 12:20:00;;;;;;;;;;;;;;;35.13;32.11;98273.81;4843950;29;19957;-70
2022/07/23 12:22:40;;;;;;;;;;;;;;;35.22;30.90;98279.13;4845416;29;19953;-70
2022/07/23 12:25:11;;;;;;;;;;;;;;;35.18;33.00;98281.59;4844093;29;20591;-70
2022/07/23 12:27:41;;;;;;;;;;;;;;;35.30;33.84;98272.03;4842141;29;19951;-70
2022/07/23 12:30:17;;;;;;;;;;;;;;;35.30;33.10;98265.44;4844016;29;19955;-70
2022/07/23 12:32:49;;;;;;;;;;;;;;;35.31;36.71;98272.81;4844136;29;19964;-70
2022/07/23 12:35:18;;;;;;;;;;;;;;;35.33;35.05;98265.09;4843721;29;19952;-70
2022/07/23 12:37:52;;;;;;;;;;;;;;;35.43;34.80;98259.56;4844566;29;19957;-70
2022/07/23 12:40:24;;;;;;;;;;;;;;;35.38;33.80;98261.25;4828990;29;19958;-70
2022/07/23 12:43:02;;;;;;;;;;;;;;;35.41;35.42;98254.28;4814510;29;19954;-70
2022/07/23 12:45:43;;;;;;;;;;;;;;;35.36;34.97;98263.19;4844081;29;19954;-70
2022/07/23 12:48:20;;;;;;;;;;;;;;;35.34;34.01;98260.03;4843606;29;20234;-70
2022/07/23 12:50:52;;;;;;;;;;;;;;;35.36;34.85;98257.38;4844335;29;20249;-70
2022/07/23 12:53:21;;;;;;;;;;;;;;;35.37;34.39;98248.06;4844667;29;19966;-70
2022/07/23 12:55:49;;;;;;;;;;;;;;;35.31;33.12;98247.41;4844476;29;20341;-70
2022/07/23 12:58:49;;;;;;;;;;;;;;;35.29;33.98;98258.06;4844245;29;19958;-70
2022/07/23 13:01:22;;;;;;;;;;;;;;;35.21;35.19;98245.59;4837968;29;19951;-70
2022/07/23 13:03:59;;;;;;;;;;;;;;;35.26;35.39;98254.19;4841302;29;19960;-70
2022/07/23 13:06:27;;;;;;;;;;;;;;;35.29;35.10;98244.28;4841973;29;19951;-70
2022/07/23 13:08:55;;;;;;;;;;;;;;;35.22;39.07;98252.94;4841439;29;19944;-70
2022/07/23 13:11:23;;;;;;;;;;;;;;;35.12;35.39;98243.19;4846445;29;19958;-70
2022/07/23 13:13:50;;;;;;;;;;;;;;;35.11;36.85;98248.22;4836711;29;19968;-70
2022/07/23 13:16:17;;;;;;;;;;;;;;;35.08;36.85;98236.94;4843449;29;19955;-70
2022/07/23 13:18:45;;;;;;;;;;;;;;;35.04;37.03;98246.03;4844177;29;19949;-70
2022/07/23 13:21:12;;;;;;;;;;;;;;;35.12;36.49;98243.94;4844828;29;20396;-70
2022/07/23 13:23:39;;;;;;;;;;;;;;;35.29;35.18;98249.31;4844106;29;20265;-70
2022/07/23 13:26:06;;;;;;;;;;;;;;;35.26;38.36;98248.38;4843616;29;19948;-70
2022/07/23 13:28:34;;;;;;;;;;;;;;;35.14;38.08;98244.16;4844235;29;19954;-70
2022/07/23 13:31:01;;;;;;;;;;;;;;;35.21;38.41;98246.38;4844220;29;19947;-70
2022/07/23 13:33:28;;;;;;;;;;;;;;;35.25;36.58;98243.88;4843629;29;20273;-70
2022/07/23 13:35:56;;;;;;;;;;;;;;;35.22;37.65;98247.91;4844189;29;19956;-70
2022/07/23 13:38:24;;;;;;;;;;;;;;;35.24;40.48;98248.13;4843974;29;20294;-70
2022/07/23 13:40:51;;;;;;;;;;;;;;;35.25;38.45;98249.69;4844327;29;19953;-70
2022/07/23 13:43:20;;;;;;;;;;;;;;;35.25;38.34;98248.91;4827351;29;19959;-70
2022/07/23 13:45:47;;;;;;;;;;;;;;;35.27;40.63;98241.19;4841622;29;19949;-70
2022/07/23 13:48:15;;;;;;;;;;;;;;;35.24;39.92;98245.22;4844772;29;19949;-70
2022/07/23 13:50:43;;;;;;;;;;;;;;;35.11;40.32;98239.50;4845088;29;20487;-70
2022/07/23 13:53:12;;;;;;;;;;;;;;;34.95;39.62;98246.47;4847559;29;19972;-70
2022/07/23 13:55:40;;;;;;;;;;;;;;;34.72;38.85;98251.28;4847877;29;19994;-70
2022/07/23 13:58:09;;;;;;;;;;;;;;;34.60;40.65;98244.97;4847870;29;19953;-70
2022/07/23 14:00:42;;;;;;;;;;;;;;;34.55;40.16;98242.16;4846931;29;19958;-70
2022/07/23 14:03:18;;;;;;;;;;;;;;;34.58;41.52;98236.00;4838458;29;19955;-70
2022/07/23 14:05:45;;;;;;;;;;;;;;;34.77;41.38;98241.66;4845794;29;19957;-70
2022/07/23 14:08:12;;;;;;;;;;;;;;;34.85;39.72;98236.69;4847177;29;20426;-70
2022/07/23 14:10:40;;;;;;;;;;;;;;;34.85;38.44;98245.38;4846526;29;19960;-70
2022/07/23 14:13:07;;;;;;;;;;;;;;;34.97;36.58;98235.06;4845086;29;19970;-70
2022/07/23 14:15:34;;;;;;;;;;;;;;;34.91;37.83;98243.94;4846239;29;19954;-70
2022/07/23 14:18:01;;;;;;;;;;;;;;;34.89;36.39;98234.22;4847744;29;20028;-70
2022/07/23 14:20:29;;;;;;;;;;;;;;;34.80;37.20;98228.88;4847080;29;20397;-70
2022/07/23 14:22:57;;;;;;;;;;;;;;;34.56;37.39;98237.91;4847579;29;19950;-70
2022/07/23 14:25:25;;;;;;;;;;;;;;;34.36;37.87;98243.06;4847033;29;20241;-70
2022/07/23 14:27:52;;;;;;;;;;;;;;;34.29;37.51;98231.38;4846811;29;19965;-70
2022/07/23 14:30:20;;;;;;;;;;;;;;;34.26;36.72;98239.06;4847144;29;19952;-70
2022/07/23 14:32:47;;;;;;;;;;;;;;;34.20;37.89;98235.53;4831227;29;19952;-70
2022/07/23 14:35:14;;;;;;;;;;;;;;;34.27;37.83;98243.56;4846545;29;19995;-70
2022/07/23 14:37:41;;;;;;;;;;;;;;;34.41;40.27;98232.66;4846821;29;19948;-70
2022/07/23 14:40:09;;;;;;;;;;;;;;;34.53;39.04;98231.06;4847550;29;19961;-70
2022/07/23 14:42:36;;;;;;;;;;;;;;;34.51;37.60;98230.06;4846980;29;19950;-70
2022/07/23 14:45:05;;;;;;;;;;;;;;;34.55;36.13;98230.56;4831143;29;20017;-70
2022/07/23 14:47:32;;;;;;;;;;;;;;;34.42;35.60;98227.66;4847155;29;19953;-70
2022/07/23 14:49:59;;;;;;;;;;;;;;;34.41;35.75;98231.91;4847228;29;19960;-70
2022/07/23 14:52:26;;;;;;;;;;;;;;;34.40;36.87;98230.34;4847090;29;19955;-70
2022/07/23 14:54:54;;;;;;;;;;;;;;;34.32;39.01;98225.22;4846737;29;20260;-70
2022/07/23 14:57:21;;;;;;;;;;;;;;;34.46;36.80;98225.16;4830716;29;19946;-70
2022/07/23 14:59:52;;;;;;;;;;;;;;;34.41;37.10;98223.19;4847045;29;20369;-70
2022/07/23 15:02:20;;;;;;;;;;;;;;;34.24;36.85;98218.53;4830382;29;19952;-70
2022/07/23 15:04:47;;;;;;;;;;;;;;;34.12;36.43;98225.16;4847215;29;20245;-70
2022/07/23 15:07:14;;;;;;;;;;;;;;;33.89;37.53;98218.25;4846455;29;19952;-70
2022/07/23 15:09:42;;;;;;;;;;;;;;;33.86;37.11;98230.97;4846477;29;19954;-70
2022/07/23 15:12:09;;;;;;;;;;;;;;;33.79;36.29;98217.91;4846499;29;19955;-70
2022/07/23 15:14:36;;;;;;;;;;;;;;;33.46;37.40;98224.31;4846564;29;20373;-70
2022/07/23 15:17:03;;;;;;;;;;;;;;;33.41;37.17;98222.31;4847083;29;20032;-70
2022/07/23 15:19:31;;;;;;;;;;;;;;;33.30;36.47;98228.31;4846609;29;19958;-70
2022/07/23 15:21:59;;;;;;;;;;;;;;;33.20;36.31;98230.88;4846820;29;20389;-70
2022/07/23 15:24:26;;;;;;;;;;;;;;;33.11;37.75;98228.41;4846867;29;19946;-70
2022/07/23 15:26:53;;;;;;;;;;;;;;;33.09;37.23;98233.97;4846307;29;19955;-70
2022/07/23 15:29:21;;;;;;;;;;;;;;;33.09;38.00;98228.94;4846589;29;19949;-70
2022/07/23 15:31:48;;;;;;;;;;;;;;;32.99;37.70;98224.09;4846293;29;20244;-70
2022/07/23 15:34:17;;;;;;;;;;;;;;;32.87;38.45;98220.59;4846246;29;19972;-70
2022/07/23 15:36:45;;;;;;;;;;;;;;;32.85;38.61;98231.97;4845998;29;20248;-70
2022/07/23 15:39:12;;;;;;;;;;;;;;;32.88;38.32;98227.19;4846308;29;19949;-70
2022/07/23 15:41:40;;;;;;;;;;;;;;;32.84;37.79;98221.69;4845030;29;20233;-70
2022/07/23 15:44:07;;;;;;;;;;;;;;;32.83;38.50;98228.06;4846302;29;19966;-70
2022/07/23 15:46:34;;;;;;;;;;;;;;;32.79;39.20;98231.25;4846091;29;19952;-70
2022/07/23 15:49:02;;;;;;;;;;;;;;;32.74;38.88;98216.88;4845964;29;19956;-70
2022/07/23 15:51:31;;;;;;;;;;;;;;;32.69;38.65;98227.25;4845746;29;19948;-70
2022/07/23 15:53:58;;;;;;;;;;;;;;;32.71;38.82;98223.78;4845738;29;19976;-70
2022/07/23 15:56:25;;;;;;;;;;;;;;;32.70;38.84;98225.09;4845882;29;20266;-70
2022/07/23 15:58:53;;;;;;;;;;;;;;;32.66;39.20;98230.44;4845496;29;19957;-70
2022/07/23 16:01:20;;;;;;;;;;;;;;;32.67;39.15;98217.53;4845473;29;19955;-70
2022/07/23 16:03:47;;;;;;;;;;;;;;;32.61;39.28;98220.50;4846023;29;19955;-70
2022/07/23 16:06:15;;;;;;;;;;;;;;;32.65;39.79;98215.19;4845382;29;19949;-70
2022/07/23 16:08:42;;;;;;;;;;;;;;;32.63;40.00;98222.84;4845829;29;19954;-70
2022/07/23 16:11:09;;;;;;;;;;;;;;;32.69;39.56;98198.28;4845698;29;20321;-70
2022/07/23 16:13:37;;;;;;;;;;;;;;;32.71;40.03;98204.28;4844760;29;19973;-70
2022/07/23 16:16:04;;;;;;;;;;;;;;;32.80;39.61;98203.09;4845226;29;19956;-70
2022/07/23 16:18:32;;;;;;;;;;;;;;;32.81;39.50;98204.66;4845321;29;19949;-70
2022/07/23 16:20:59;;;;;;;;;;;;;;;32.84;37.51;98207.22;4845000;29;19973;-70
2022/07/23 16:23:32;;;;;;;;;;;;;;;32.83;39.73;98199.09;4844732;29;19949;-70
2022/07/23 16:25:59;;;;;;;;;;;;;;;32.80;38.27;98200.97;4845326;29;19951;-70
2022/07/23 16:28:27;;;;;;;;;;;;;;;32.77;38.77;98210.75;4845347;29;19949;-70
2022/07/23 16:30:54;;;;;;;;;;;;;;;32.64;38.95;98204.16;4845434;29;20255;-70
2022/07/23 16:33:21;;;;;;;;;;;;;;;32.53;38.26;98210.09;4845327;29;19960;-70
2022/07/23 16:35:48;;;;;;;;;;;;;;;32.54;37.15;98205.88;4845105;29;19973;-70
2022/07/23 16:38:16;;;;;;;;;;;;;;;32.44;38.22;98205.47;4845572;29;19956;-70
2022/07/23 16:40:43;;;;;;;;;;;;;;;32.33;36.86;98205.63;4845074;29;20436;-70
2022/07/23 16:43:10;;;;;;;;;;;;;;;32.34;36.00;98210.88;4845056;29;19955;-70
2022/07/23 16:45:38;;;;;;;;;;;;;;;32.33;35.87;98206.41;4845768;29;20345;-70
2022/07/23 16:48:06;;;;;;;;;;;;;;;32.23;35.57;98201.59;4844866;29;19959;-70
2022/07/23 16:50:33;;;;;;;;;;;;;;;32.21;35.60;98201.34;4829002;29;19953;-70
2022/07/23 16:53:01;;;;;;;;;;;;;;;32.16;35.05;98197.19;4845094;29;20224;-70
2022/07/23 16:55:28;;;;;;;;;;;;;;;32.13;35.32;98197.53;4845123;29;19972;-70
2022/07/23 16:57:55;;;;;;;;;;;;;;;32.13;36.02;98198.28;4844937;29;19958;-70
2022/07/23 17:00:22;;;;;;;;;;;;;;;32.10;36.92;98187.03;4844646;29;19951;-69
2022/07/23 17:02:50;;;;;;;;;;;;;;;32.08;37.82;98190.50;4844679;29;19957;-69
2022/07/23 17:05:17;;;;;;;;;;;;;;;31.99;37.37;98202.44;4845015;29;19954;-69
2022/07/23 17:07:44;;;;;;;;;;;;;;;31.95;38.28;98196.16;4844864;29;20239;-70
2022/07/23 17:10:11;;;;;;;;;;;;;;;31.88;38.73;98181.53;4844496;29;19951;-70
2022/07/23 17:12:39;;;;;;;;;;;;;;;31.83;38.14;98192.63;4844961;29;19954;-69
2022/07/23 17:15:06;;;;;;;;;;;;;;;31.86;38.84;98187.06;4844687;29;20257;-69
2022/07/23 17:17:35;;;;;;;;;;;;;;;31.79;38.60;98180.56;4844870;29;19963;-69
2022/07/23 17:20:03;;;;;;;;;;;;;;;31.77;38.63;98194.00;4844563;29;19991;-70
2022/07/23 17:22:31;;;;;;;;;;;;;;;31.64;40.26;98188.91;4844384;29;19960;-70
2022/07/23 17:24:58;;;;;;;;;;;;;;;31.60;40.08;98197.09;4843962;29;20332;-70
2022/07/23 17:27:25;;;;;;;;;;;;;;;31.47;40.74;98199.13;4843767;29;19950;-70
2022/07/23 17:29:53;;;;;;;;;;;;;;;31.45;41.60;98196.00;4843813;29;19951;-69
2022/07/23 17:32:20;;;;;;;;;;;;;;;31.40;41.49;98194.69;4843974;29;19949;-70
2022/07/23 17:34:47;;;;;;;;;;;;;;;31.28;42.68;98195.38;4843730;29;19965;-70
2022/07/23 17:37:15;;;;;;;;;;;;;;;31.23;41.83;98193.31;4831982;29;19949;-70
2022/07/23 17:39:43;;;;;;;;;;;;;;;31.13;42.76;98201.53;4844192;29;19954;-70
2022/07/23 17:42:10;;;;;;;;;;;;;;;30.91;43.65;98196.00;4844705;29;19952;-70
2022/07/23 17:44:37;;;;;;;;;;;;;;;30.88;42.71;98194.94;4844846;29;19955;-70
2022/07/23 17:47:04;;;;;;;;;;;;;;;30.82;40.93;98190.50;4844478;29;20273;-70
2022/07/23 17:49:32;;;;;;;;;;;;;;;30.78;43.24;98198.69;4844658;29;20370;-70
2022/07/23 17:52:03;;;;;;;;;;;;;;;30.68;42.34;98188.78;4844614;29;19947;-69
2022/07/23 17:54:30;;;;;;;;;;;;;;;30.61;40.27;98192.25;4844585;29;20248;-69
2022/07/23 17:56:58;;;;;;;;;;;;;;;30.59;40.51;98194.91;4843958;29;19959;-70
2022/07/23 17:59:28;;;;;;;;;;;;;;;30.54;40.62;98190.75;4844651;29;20234;-70
2022/07/23 18:01:55;;;;;;;;;;;;;;;30.47;39.44;98194.97;4843831;29;20246;-70
2022/07/23 18:04:22;;;;;;;;;;;;;;;30.45;40.16;98193.94;4843898;29;19959;-70
2022/07/23 18:06:51;;;;;;;;;;;;;;;30.34;40.01;98197.72;4843796;29;19973;-70
2022/07/23 18:09:18;;;;;;;;;;;;;;;30.31;40.83;98201.63;4842476;29;19954;-70
2022/07/23 18:11:45;;;;;;;;;;;;;;;30.29;40.13;98198.50;4844063;29;19957;-70
2022/07/23 18:14:13;;;;;;;;;;;;;;;30.33;39.22;98201.09;4843770;29;19948;-70
2022/07/23 18:16:40;;;;;;;;;;;;;;;30.30;40.54;98208.72;4843845;29;19966;-70
2022/07/23 18:19:07;;;;;;;;;;;;;;;30.22;40.91;98209.81;4844147;29;19957;-70
2022/07/23 18:21:35;;;;;;;;;;;;;;;30.22;42.09;98204.06;4843993;29;19969;-70
2022/07/23 18:24:02;;;;;;;;;;;;;;;30.18;42.54;98207.22;4843074;29;20318;-70